Time;durP1;ratioP1;P1;durP2;ratioP2;P2;SDS_P1;SDS_P2;PMS_P1;PMS_P2;Temp;Humidity;BMP_temperature;BMP_pressure;BME280_temperature;BME280_humidity;BME280_pressure;Samples;Min_cycle;Max_cycle;Signal;HPM_P1;HPM_P2
2020/12/28 00:01:45;;;;;;;0.80;0.60;;;5.10;99.90;;;;;;5014113;28;20529;-70
2020/12/28 00:04:12;;;;;;;0.70;0.60;;;5.10;99.90;;;;;;5014101;28;20444;-71
2020/12/28 00:06:38;;;;;;;0.83;0.70;;;4.90;99.90;;;;;;5013810;28;20492;-71
2020/12/28 00:09:06;;;;;;;0.87;0.83;;;4.90;99.90;;;;;;5013645;28;20471;-71
2020/12/28 00:11:32;;;;;;;0.70;0.70;;;4.90;99.90;;;;;;5013733;28;20509;-71
2020/12/28 00:13:58;;;;;;;4.00;0.70;;;4.90;99.90;;;;;;5013552;28;20447;-71
2020/12/28 00:16:24;;;;;;;0.60;0.60;;;4.80;99.90;;;;;;5014752;28;20542;-70
2020/12/28 00:18:51;;;;;;;0.57;0.57;;;4.70;99.90;;;;;;5013583;28;20522;-70
2020/12/28 00:21:17;;;;;;;0.60;0.60;;;4.70;99.90;;;;;;5013575;28;20490;-70
2020/12/28 00:23:43;;;;;;;0.60;0.60;;;4.80;99.90;;;;;;5013788;28;20466;-70
2020/12/28 00:26:10;;;;;;;0.93;0.60;;;4.80;99.90;;;;;;5013705;28;20827;-71
2020/12/28 00:28:36;;;;;;;0.60;0.60;;;5.00;99.90;;;;;;5013505;28;20443;-67
2020/12/28 00:31:02;;;;;;;0.87;0.53;;;5.10;99.90;;;;;;5013537;28;20451;-70
2020/12/28 00:33:29;;;;;;;0.50;0.50;;;5.10;99.90;;;;;;5013621;28;20467;-70
2020/12/28 00:35:55;;;;;;;0.80;0.60;;;5.00;99.90;;;;;;5013530;28;20448;-71
2020/12/28 00:38:21;;;;;;;0.60;0.50;;;5.00;99.90;;;;;;5013362;28;20538;-71
2020/12/28 00:40:47;;;;;;;0.50;0.50;;;5.00;99.90;;;;;;5013358;28;20854;-71
2020/12/28 00:43:14;;;;;;;0.80;0.60;;;5.10;99.90;;;;;;5013305;28;20478;-71
2020/12/28 00:45:40;;;;;;;0.60;0.57;;;5.10;99.90;;;;;;5013286;28;20837;-71
2020/12/28 00:48:07;;;;;;;0.70;0.70;;;5.00;99.90;;;;;;5013366;28;20447;-71
2020/12/28 00:50:33;;;;;;;0.57;0.57;;;5.00;99.90;;;;;;5013483;28;20447;-70
2020/12/28 00:53:00;;;;;;;0.70;0.67;;;4.90;99.90;;;;;;5013144;28;20813;-68
2020/12/28 00:55:26;;;;;;;0.60;0.60;;;4.90;99.90;;;;;;5013281;28;20474;-68
2020/12/28 00:57:52;;;;;;;0.70;0.70;;;4.90;99.90;;;;;;5012859;28;20455;-68
2020/12/28 01:00:19;;;;;;;0.70;0.70;;;4.90;99.90;;;;;;5013071;28;21005;-70
2020/12/28 01:02:45;;;;;;;0.60;0.60;;;4.90;99.90;;;;;;5013058;28;20475;-71
2020/12/28 01:05:12;;;;;;;1.10;0.63;;;4.90;99.90;;;;;;5012689;28;20939;-71
2020/12/28 01:07:38;;;;;;;0.60;0.60;;;4.90;99.90;;;;;;5013179;28;20474;-71
2020/12/28 01:10:04;;;;;;;0.70;0.70;;;4.80;99.90;;;;;;5013076;28;20523;-71
2020/12/28 01:12:31;;;;;;;0.70;0.70;;;4.70;99.90;;;;;;5012990;28;20541;-71
2020/12/28 01:14:58;;;;;;;0.80;0.80;;;4.70;99.90;;;;;;5013007;28;20494;-71
2020/12/28 01:17:25;;;;;;;1.00;0.80;;;4.70;99.90;;;;;;5012966;28;20439;-71
2020/12/28 01:19:51;;;;;;;0.97;0.70;;;4.70;99.90;;;;;;5013498;28;20455;-71
2020/12/28 01:22:17;;;;;;;0.70;0.70;;;4.70;99.90;;;;;;5012670;28;20483;-70
2020/12/28 01:24:43;;;;;;;2.13;0.80;;;4.60;99.90;;;;;;5013152;28;20463;-70
2020/12/28 01:27:09;;;;;;;0.60;0.60;;;4.60;99.90;;;;;;5013104;28;20479;-70
2020/12/28 01:29:36;;;;;;;0.80;0.80;;;4.60;99.90;;;;;;5013127;28;20447;-71
2020/12/28 01:32:02;;;;;;;1.00;0.77;;;4.60;99.90;;;;;;5016429;28;20470;-71
2020/12/28 01:34:29;;;;;;;1.00;0.90;;;4.70;99.90;;;;;;5016493;28;20971;-71
2020/12/28 01:36:55;;;;;;;1.10;1.00;;;4.70;99.90;;;;;;5016787;28;20451;-71
2020/12/28 01:39:21;;;;;;;1.10;1.00;;;4.70;99.90;;;;;;5016556;28;20513;-71
2020/12/28 01:41:47;;;;;;;1.93;0.90;;;4.70;99.90;;;;;;5016459;28;20497;-71
2020/12/28 01:44:14;;;;;;;2.87;1.13;;;4.70;99.90;;;;;;5016459;28;20443;-68
2020/12/28 01:46:40;;;;;;;1.00;1.00;;;4.70;99.90;;;;;;5016217;28;20483;-68
2020/12/28 01:49:07;;;;;;;0.93;0.90;;;4.70;99.90;;;;;;5016213;28;20470;-68
2020/12/28 01:51:34;;;;;;;1.00;0.90;;;4.60;99.90;;;;;;5016186;28;20451;-68
2020/12/28 01:54:01;;;;;;;1.60;1.50;;;4.60;99.90;;;;;;5016221;28;20959;-68
2020/12/28 01:56:29;;;;;;;1.20;1.10;;;4.60;99.90;;;;;;5016063;28;20450;-69
2020/12/28 01:58:55;;;;;;;1.20;1.07;;;4.60;99.90;;;;;;5016078;28;20443;-69
2020/12/28 02:01:26;;;;;;;1.10;0.90;;;4.50;99.90;;;;;;5016812;28;20443;-69
2020/12/28 02:03:52;;;;;;;1.10;1.10;;;4.50;99.90;;;;;;5016203;28;20432;-69
2020/12/28 02:06:18;;;;;;;1.00;0.90;;;4.40;99.90;;;;;;5015917;28;20502;-69
2020/12/28 02:08:45;;;;;;;1.40;1.30;;;4.40;99.90;;;;;;5016081;28;20448;-70
2020/12/28 02:11:12;;;;;;;1.20;1.10;;;4.40;99.90;;;;;;5015798;28;20451;-70
2020/12/28 02:13:38;;;;;;;1.40;1.30;;;4.40;99.90;;;;;;5015902;28;20504;-70
2020/12/28 02:16:04;;;;;;;1.67;1.20;;;4.30;99.90;;;;;;5015617;28;20947;-71
2020/12/28 02:18:30;;;;;;;1.20;1.10;;;4.20;99.90;;;;;;5015858;28;20447;-71
2020/12/28 02:20:57;;;;;;;2.00;1.50;;;4.10;99.90;;;;;;5015481;28;20482;-70
2020/12/28 02:23:24;;;;;;;2.03;1.47;;;4.10;99.90;;;;;;5015547;28;20468;-71
2020/12/28 02:25:50;;;;;;;1.30;1.20;;;4.10;99.90;;;;;;5015665;28;20487;-71
2020/12/28 02:28:16;;;;;;;0.90;0.90;;;4.10;99.90;;;;;;5015703;28;20822;-70
2020/12/28 02:30:42;;;;;;;1.40;1.30;;;4.10;99.90;;;;;;5015712;28;20455;-71
2020/12/28 02:33:08;;;;;;;1.37;1.23;;;4.10;99.90;;;;;;5015204;28;20982;-70
2020/12/28 02:35:34;;;;;;;1.27;1.17;;;4.10;99.90;;;;;;5015599;28;20447;-70
2020/12/28 02:38:01;;;;;;;1.10;1.10;;;4.20;99.90;;;;;;5015266;28;20935;-70
2020/12/28 02:40:28;;;;;;;1.27;1.17;;;4.20;99.90;;;;;;5015500;28;20448;-70
2020/12/28 02:42:54;;;;;;;0.97;0.97;;;4.20;99.90;;;;;;5014949;28;21010;-70
2020/12/28 02:45:20;;;;;;;1.30;1.30;;;4.20;99.90;;;;;;5015505;28;20498;-70
2020/12/28 02:47:46;;;;;;;0.90;0.90;;;4.10;99.90;;;;;;5015384;28;20452;-70
2020/12/28 02:50:12;;;;;;;1.03;1.03;;;4.00;99.90;;;;;;5014997;28;20947;-70
2020/12/28 02:52:39;;;;;;;1.10;1.03;;;4.10;99.90;;;;;;5014849;28;20464;-70
2020/12/28 02:55:05;;;;;;;0.77;0.77;;;4.00;99.90;;;;;;5015256;28;20451;-68
2020/12/28 02:57:32;;;;;;;0.80;0.80;;;3.90;99.90;;;;;;5014770;28;21070;-68
2020/12/28 02:59:58;;;;;;;0.93;0.93;;;4.00;99.90;;;;;;5014976;28;20451;-69
2020/12/28 03:02:24;;;;;;;0.80;0.80;;;3.90;99.90;;;;;;5014839;28;20467;-69
2020/12/28 03:04:50;;;;;;;0.80;0.80;;;3.80;99.90;;;;;;5015031;28;20443;-69
2020/12/28 03:07:16;;;;;;;0.70;0.70;;;3.80;99.90;;;;;;5014799;28;20545;-68
2020/12/28 03:09:43;;;;;;;0.67;0.67;;;3.70;99.90;;;;;;5014711;28;20443;-71
2020/12/28 03:12:09;;;;;;;2.63;0.90;;;3.80;99.90;;;;;;5014762;28;20472;-70
2020/12/28 03:14:36;;;;;;;0.93;0.93;;;3.90;99.90;;;;;;5014877;28;20456;-71
2020/12/28 03:17:02;;;;;;;0.80;0.80;;;3.90;99.90;;;;;;5014833;28;20505;-71
2020/12/28 03:19:31;;;;;;;1.33;0.80;;;3.90;99.90;;;;;;5014950;28;20451;-69
2020/12/28 03:21:57;;;;;;;0.60;0.60;;;3.90;99.90;;;;;;5014198;28;20495;-68
2020/12/28 03:24:23;;;;;;;0.60;0.60;;;3.90;99.90;;;;;;5014531;28;20444;-68
2020/12/28 03:26:49;;;;;;;0.73;0.73;;;3.90;99.90;;;;;;5014381;28;20826;-68
2020/12/28 03:29:15;;;;;;;0.53;0.53;;;3.80;99.90;;;;;;5014415;28;20459;-68
2020/12/28 03:31:42;;;;;;;0.57;0.57;;;3.90;99.90;;;;;;5014038;28;20975;-68
2020/12/28 03:34:09;;;;;;;1.00;0.70;;;3.90;99.90;;;;;;5014546;28;20518;-68
2020/12/28 03:36:36;;;;;;;1.23;0.60;;;3.90;99.90;;;;;;5014322;28;20444;-68
2020/12/28 03:39:03;;;;;;;0.60;0.60;;;4.00;99.90;;;;;;5014560;28;20455;-68
2020/12/28 03:41:29;;;;;;;0.60;0.60;;;4.00;99.90;;;;;;5014497;28;20450;-67
2020/12/28 03:43:55;;;;;;;0.50;0.50;;;3.90;99.90;;;;;;5014382;28;20451;-67
2020/12/28 03:46:21;;;;;;;0.60;0.60;;;3.90;99.90;;;;;;5014210;28;20571;-68
2020/12/28 03:48:48;;;;;;;0.77;0.60;;;3.80;99.90;;;;;;5013799;28;20947;-68
2020/12/28 03:51:14;;;;;;;0.40;0.40;;;3.80;99.90;;;;;;5014109;28;20455;-68
2020/12/28 03:53:41;;;;;;;0.80;0.50;;;3.80;99.90;;;;;;5013422;28;20883;-68
2020/12/28 03:56:07;;;;;;;0.50;0.50;;;3.80;99.90;;;;;;5014117;28;20444;-68
2020/12/28 03:58:33;;;;;;;0.50;0.50;;;3.80;99.90;;;;;;5014122;28;20452;-71
2020/12/28 04:00:59;;;;;;;0.50;0.50;;;3.70;99.90;;;;;;5013688;28;20443;-71
2020/12/28 04:03:25;;;;;;;0.50;0.50;;;3.70;99.90;;;;;;5013935;28;20471;-71
2020/12/28 04:05:52;;;;;;;0.93;0.40;;;3.70;99.90;;;;;;5013572;28;21003;-71
2020/12/28 04:08:18;;;;;;;1.03;0.60;;;3.60;99.90;;;;;;5013923;28;20447;-71
2020/12/28 04:10:45;;;;;;;0.50;0.50;;;3.60;99.90;;;;;;5013516;28;20444;-71
2020/12/28 04:13:11;;;;;;;0.47;0.40;;;3.60;99.90;;;;;;5013718;28;20467;-71
2020/12/28 04:15:37;;;;;;;0.50;0.43;;;3.60;99.90;;;;;;5013806;28;20802;-71
2020/12/28 04:18:03;;;;;;;0.50;0.40;;;3.60;99.90;;;;;;5013949;28;20447;-71
2020/12/28 04:20:29;;;;;;;0.50;0.50;;;3.60;99.90;;;;;;5013561;28;20616;-71
2020/12/28 04:22:57;;;;;;;0.43;0.43;;;3.60;99.90;;;;;;5013289;28;21040;-71
2020/12/28 04:25:23;;;;;;;0.50;0.50;;;3.70;99.90;;;;;;5013714;28;20447;-71
2020/12/28 04:27:49;;;;;;;0.90;0.40;;;3.60;99.90;;;;;;5013602;28;20451;-71
2020/12/28 04:30:15;;;;;;;0.40;0.40;;;3.60;99.90;;;;;;5013328;28;20435;-72
2020/12/28 04:32:41;;;;;;;0.43;0.43;;;3.70;99.90;;;;;;5013393;28;20463;-72
2020/12/28 04:35:07;;;;;;;0.50;0.40;;;3.60;99.90;;;;;;5013674;28;20443;-68
2020/12/28 04:37:34;;;;;;;0.40;0.40;;;3.60;99.90;;;;;;5013630;28;20443;-68
2020/12/28 04:40:01;;;;;;;0.80;0.40;;;3.60;99.90;;;;;;5013470;28;20470;-68
2020/12/28 04:42:29;;;;;;;0.50;0.40;;;3.70;99.90;;;;;;5013469;28;20826;-71
2020/12/28 04:44:56;;;;;;;0.50;0.50;;;3.70;99.90;;;;;;5013078;28;20443;-71
2020/12/28 04:47:22;;;;;;;0.40;0.40;;;3.60;99.90;;;;;;5012998;28;20513;-71
2020/12/28 04:49:49;;;;;;;0.50;0.40;;;3.70;99.90;;;;;;5013022;28;20451;-71
2020/12/28 04:52:16;;;;;;;0.40;0.40;;;3.70;99.90;;;;;;5013077;28;20987;-68
2020/12/28 04:54:46;;;;;;;0.40;0.40;;;3.60;99.90;;;;;;5014200;28;20775;-68
2020/12/28 04:57:13;;;;;;;0.40;0.40;;;3.60;99.90;;;;;;5013223;28;20443;-68
2020/12/28 04:59:39;;;;;;;0.40;0.40;;;3.70;99.90;;;;;;5013190;28;20446;-68
2020/12/28 05:02:06;;;;;;;0.60;0.50;;;3.80;99.90;;;;;;5013335;28;20470;-68
2020/12/28 05:04:33;;;;;;;0.63;0.63;;;3.90;99.90;;;;;;5013153;28;20453;-68
2020/12/28 05:07:00;;;;;;;0.40;0.40;;;3.80;99.90;;;;;;5016986;28;20479;-68
2020/12/28 05:09:26;;;;;;;0.43;0.43;;;3.80;99.90;;;;;;5017132;28;20455;-69
2020/12/28 05:11:54;;;;;;;0.43;0.43;;;3.90;99.90;;;;;;5017114;28;20467;-68
2020/12/28 05:14:21;;;;;;;0.50;0.50;;;3.80;99.90;;;;;;5017144;28;20438;-68
2020/12/28 05:16:48;;;;;;;0.40;0.40;;;3.80;99.90;;;;;;5017108;28;20443;-68
2020/12/28 05:19:14;;;;;;;0.43;0.43;;;3.80;99.90;;;;;;5017077;28;20454;-68
2020/12/28 05:21:42;;;;;;;0.40;0.40;;;3.80;99.90;;;;;;5016542;28;20494;-68
2020/12/28 05:24:12;;;;;;;0.40;0.40;;;3.80;99.90;;;;;;5009099;28;20481;-68
2020/12/28 05:26:40;;;;;;;0.93;0.40;;;3.80;99.90;;;;;;5016661;28;20483;-68
2020/12/28 05:29:11;;;;;;;0.40;0.40;;;3.80;99.90;;;;;;5016836;28;20447;-68
2020/12/28 05:31:39;;;;;;;0.40;0.40;;;3.80;99.90;;;;;;5016698;28;20410;-68
2020/12/28 05:34:11;;;;;;;0.40;0.40;;;3.80;99.90;;;;;;5016284;28;20438;-68
2020/12/28 05:36:38;;;;;;;0.40;0.40;;;3.90;99.90;;;;;;5016706;28;20436;-68
2020/12/28 05:39:04;;;;;;;0.40;0.40;;;3.90;99.90;;;;;;5016640;28;20451;-71
2020/12/28 05:41:31;;;;;;;0.60;0.50;;;3.90;99.90;;;;;;5016773;28;20818;-71
2020/12/28 05:44:07;;;;;;;0.40;0.40;;;3.80;99.90;;;;;;5016566;28;20447;-71
2020/12/28 05:46:34;;;;;;;0.50;0.50;;;3.80;99.90;;;;;;5016464;28;20475;-71
2020/12/28 05:49:05;;;;;;;0.40;0.40;;;3.80;99.90;;;;;;5016479;28;20785;-71
2020/12/28 05:51:34;;;;;;;1.97;0.83;;;3.80;99.90;;;;;;5016361;28;20402;-71
2020/12/28 05:54:09;;;;;;;0.50;0.50;;;3.80;99.90;;;;;;5016414;28;20447;-71
2020/12/28 05:56:41;;;;;;;0.40;0.40;;;3.70;99.90;;;;;;5016339;28;20427;-71
2020/12/28 05:59:10;;;;;;;0.50;0.40;;;3.70;99.90;;;;;;5016365;28;20486;-71
2020/12/28 06:01:41;;;;;;;0.40;0.40;;;3.70;99.90;;;;;;5015845;28;20940;-71
2020/12/28 06:04:13;;;;;;;0.50;0.50;;;3.70;99.90;;;;;;5016269;28;20427;-71
2020/12/28 06:06:40;;;;;;;0.40;0.40;;;3.70;99.90;;;;;;5016367;28;20463;-71
2020/12/28 06:09:06;;;;;;;0.43;0.43;;;3.70;99.90;;;;;;5016355;28;20439;-71
2020/12/28 06:11:32;;;;;;;0.40;0.40;;;3.70;99.90;;;;;;5016233;28;20459;-71
2020/12/28 06:13:59;;;;;;;0.50;0.40;;;3.70;99.90;;;;;;5015950;28;20978;-71
2020/12/28 06:16:25;;;;;;;0.50;0.50;;;3.70;99.90;;;;;;5015461;28;20444;-71
2020/12/28 06:18:55;;;;;;;0.40;0.40;;;3.60;99.90;;;;;;5015676;28;20502;-68
2020/12/28 06:21:22;;;;;;;0.40;0.40;;;3.70;99.90;;;;;;5015520;28;20890;-68
2020/12/28 06:23:49;;;;;;;1.90;0.60;;;3.60;99.90;;;;;;5015651;28;20926;-70
2020/12/28 06:26:18;;;;;;;0.60;0.60;;;3.50;99.90;;;;;;5015593;28;20471;-68
2020/12/28 06:28:45;;;;;;;0.70;0.50;;;3.60;99.90;;;;;;5015802;28;20475;-68
2020/12/28 06:31:11;;;;;;;0.50;0.50;;;3.50;99.90;;;;;;5015805;28;20418;-69
2020/12/28 06:33:48;;;;;;;0.40;0.40;;;3.50;99.90;;;;;;5015693;28;20470;-69
2020/12/28 06:36:15;;;;;;;0.40;0.40;;;3.40;99.90;;;;;;5015319;28;21005;-69
2020/12/28 06:38:42;;;;;;;0.40;0.40;;;3.40;99.90;;;;;;5015476;28;20813;-69
2020/12/28 06:41:09;;;;;;;0.50;0.50;;;3.30;99.90;;;;;;5015178;28;20897;-69
2020/12/28 06:43:39;;;;;;;1.23;0.60;;;3.30;99.90;;;;;;5015281;28;20498;-69
2020/12/28 06:46:05;;;;;;;0.50;0.50;;;3.30;99.90;;;;;;5015151;28;21033;-69
2020/12/28 06:48:32;;;;;;;0.67;0.57;;;3.20;99.90;;;;;;5015487;28;20454;-69
2020/12/28 06:51:06;;;;;;;0.67;0.60;;;3.20;99.90;;;;;;5014883;28;20845;-69
2020/12/28 06:53:33;;;;;;;0.60;0.53;;;3.10;99.90;;;;;;5015417;28;20466;-71
2020/12/28 06:56:07;;;;;;;1.00;0.63;;;3.10;99.90;;;;;;5015111;28;20439;-71
2020/12/28 06:58:33;;;;;;;0.57;0.50;;;3.10;99.90;;;;;;5015427;28;20432;-71
2020/12/28 07:01:02;;;;;;;1.00;0.50;;;3.00;99.90;;;;;;5015381;28;20455;-71
2020/12/28 07:03:28;;;;;;;0.60;0.60;;;2.90;99.90;;;;;;5015111;28;20517;-71
2020/12/28 07:05:59;;;;;;;1.53;0.60;;;2.90;99.90;;;;;;5014923;28;20418;-72
2020/12/28 07:08:26;;;;;;;0.50;0.50;;;2.90;99.90;;;;;;5015972;28;20440;-72
2020/12/28 07:11:00;;;;;;;0.40;0.40;;;2.90;99.90;;;;;;5015158;28;20424;-71
2020/12/28 07:13:27;;;;;;;0.50;0.50;;;2.90;99.90;;;;;;5014779;28;20459;-71
2020/12/28 07:16:01;;;;;;;0.60;0.60;;;2.90;99.90;;;;;;5014589;28;20929;-69
2020/12/28 07:18:27;;;;;;;1.80;0.70;;;2.90;99.90;;;;;;5014919;28;20410;-69
2020/12/28 07:20:57;;;;;;;0.50;0.50;;;2.90;99.90;;;;;;5014463;28;20483;-69
2020/12/28 07:23:25;;;;;;;1.00;0.70;;;2.90;99.90;;;;;;5014556;28;20473;-69
2020/12/28 07:26:06;;;;;;;0.80;0.70;;;2.90;99.90;;;;;;5014579;28;20502;-69
2020/12/28 07:28:34;;;;;;;0.50;0.50;;;2.90;99.90;;;;;;5013634;28;20436;-69
2020/12/28 07:31:01;;;;;;;0.60;0.60;;;2.90;99.90;;;;;;5014570;28;20423;-69
2020/12/28 07:33:27;;;;;;;1.43;0.60;;;2.80;99.90;;;;;;5014343;28;20445;-69
2020/12/28 07:36:08;;;;;;;0.80;0.70;;;2.80;99.90;;;;;;5014493;28;20455;-71
2020/12/28 07:38:35;;;;;;;0.60;0.60;;;2.90;99.90;;;;;;5014165;28;20901;-71
2020/12/28 07:41:02;;;;;;;1.37;0.67;;;2.80;99.90;;;;;;5014408;28;20776;-71
2020/12/28 07:43:28;;;;;;;0.70;0.53;;;2.80;99.90;;;;;;5013958;28;20463;-71
2020/12/28 07:46:06;;;;;;;0.50;0.50;;;2.80;99.90;;;;;;5013867;28;20978;-71
2020/12/28 07:48:36;;;;;;;0.60;0.60;;;2.80;99.90;;;;;;5014429;28;20432;-71
2020/12/28 07:51:07;;;;;;;6.80;0.67;;;2.70;99.90;;;;;;5013982;28;20459;-71
2020/12/28 07:53:41;;;;;;;0.70;0.70;;;2.70;99.90;;;;;;5013952;28;21018;-71
2020/12/28 07:56:16;;;;;;;0.60;0.60;;;2.70;99.90;;;;;;5014125;28;20424;-69
2020/12/28 07:58:49;;;;;;;0.50;0.50;;;2.70;99.90;;;;;;5014137;28;20458;-69
2020/12/28 08:01:22;;;;;;;0.90;0.60;;;2.60;99.90;;;;;;5014285;28;20439;-71
2020/12/28 08:03:52;;;;;;;0.60;0.60;;;2.70;99.90;;;;;;5014191;28;20803;-71
2020/12/28 08:06:20;;;;;;;0.80;0.60;;;2.70;99.90;;;;;;5014184;28;20467;-71
2020/12/28 08:08:46;;;;;;;0.60;0.60;;;2.70;99.90;;;;;;5013897;28;20940;-69
2020/12/28 08:11:22;;;;;;;0.63;0.60;;;2.70;99.90;;;;;;5013825;28;20486;-69
2020/12/28 08:13:48;;;;;;;0.60;0.60;;;2.70;99.90;;;;;;5013784;28;20883;-69
2020/12/28 08:16:16;;;;;;;0.70;0.67;;;2.80;99.90;;;;;;5013657;28;20506;-69
2020/12/28 08:18:47;;;;;;;0.50;0.50;;;2.70;99.90;;;;;;5013400;28;20907;-69
2020/12/28 08:21:13;;;;;;;0.53;0.53;;;2.80;99.90;;;;;;5013398;28;20514;-71
2020/12/28 08:23:40;;;;;;;0.50;0.50;;;2.80;99.90;;;;;;5013803;28;20482;-68
2020/12/28 08:26:20;;;;;;;0.50;0.50;;;2.90;99.90;;;;;;5013649;28;20482;-68
2020/12/28 08:28:50;;;;;;;0.60;0.43;;;2.90;99.90;;;;;;5013697;28;20459;-69
2020/12/28 08:31:24;;;;;;;0.50;0.50;;;2.90;99.90;;;;;;5013475;28;20435;-68
2020/12/28 08:33:58;;;;;;;0.50;0.50;;;2.90;99.90;;;;;;5013822;28;20432;-68
2020/12/28 08:36:25;;;;;;;0.60;0.60;;;2.90;99.90;;;;;;5013506;28;20431;-68
2020/12/28 08:38:51;;;;;;;0.50;0.50;;;2.90;99.90;;;;;;5013262;28;20447;-68
2020/12/28 08:41:17;;;;;;;0.90;0.50;;;2.90;99.90;;;;;;5013094;28;20851;-69
2020/12/28 08:43:45;;;;;;;0.43;0.40;;;2.90;99.90;;;;;;5013276;28;20475;-69
2020/12/28 08:46:12;;;;;;;1.23;0.50;;;2.90;99.90;;;;;;5012829;28;21013;-69
2020/12/28 08:48:41;;;;;;;0.50;0.50;;;3.00;99.90;;;;;;5013330;28;20459;-69
2020/12/28 08:51:14;;;;;;;0.50;0.50;;;3.10;99.90;;;;;;5004897;28;20479;-69
2020/12/28 08:53:44;;;;;;;0.50;0.50;;;3.00;99.90;;;;;;5012928;28;21046;-69
2020/12/28 08:56:10;;;;;;;0.50;0.50;;;3.10;99.90;;;;;;5013317;28;20431;-69
2020/12/28 08:58:37;;;;;;;0.50;0.50;;;3.10;99.90;;;;;;5012815;28;20452;-69
2020/12/28 09:01:04;;;;;;;0.60;0.60;;;3.10;99.90;;;;;;5013117;28;20456;-69
2020/12/28 09:03:30;;;;;;;1.40;1.00;;;3.20;99.90;;;;;;5013404;28;20475;-71
2020/12/28 09:05:57;;;;;;;0.87;0.40;;;3.20;99.90;;;;;;5013292;28;20478;-71
2020/12/28 09:08:23;;;;;;;1.60;0.50;;;3.40;99.90;;;;;;5013392;28;20459;-71
2020/12/28 09:10:50;;;;;;;0.60;0.40;;;3.50;99.90;;;;;;5013385;28;20502;-71
2020/12/28 09:13:16;;;;;;;1.37;0.40;;;3.50;99.90;;;;;;5013222;28;20801;-69
2020/12/28 09:15:42;;;;;;;0.40;0.40;;;3.50;99.90;;;;;;5013032;28;20455;-69
2020/12/28 09:18:08;;;;;;;0.70;0.40;;;3.60;99.90;;;;;;5013019;28;20447;-69
2020/12/28 09:20:34;;;;;;;1.10;0.50;;;3.50;99.90;;;;;;5012612;28;21010;-68
2020/12/28 09:23:01;;;;;;;0.63;0.60;;;3.60;99.90;;;;;;5013133;28;20474;-68
2020/12/28 09:25:28;;;;;;;2.50;1.90;;;3.60;99.90;;;;;;5012956;28;20451;-68
2020/12/28 09:27:54;;;;;;;0.53;0.53;;;3.60;99.90;;;;;;5012937;28;20479;-69
2020/12/28 09:30:21;;;;;;;0.70;0.70;;;3.70;99.90;;;;;;5012881;28;20475;-69
2020/12/28 09:32:47;;;;;;;0.70;0.70;;;3.60;99.90;;;;;;5012612;28;20463;-68
2020/12/28 09:35:13;;;;;;;2.40;2.20;;;3.70;99.90;;;;;;5012978;28;20455;-71
2020/12/28 09:37:40;;;;;;;0.90;0.90;;;3.70;99.90;;;;;;5012909;28;20443;-72
2020/12/28 09:40:07;;;;;;;1.10;1.00;;;3.70;99.90;;;;;;5012900;28;20447;-71
2020/12/28 09:42:33;;;;;;;0.60;0.60;;;3.80;99.90;;;;;;5012841;28;20463;-71
2020/12/28 09:44:59;;;;;;;1.00;0.90;;;3.90;99.90;;;;;;5012868;28;20446;-71
2020/12/28 09:47:25;;;;;;;1.47;0.67;;;3.80;99.90;;;;;;5012774;28;20517;-71
2020/12/28 09:49:52;;;;;;;0.63;0.60;;;3.80;99.90;;;;;;5012927;28;20448;-71
2020/12/28 09:52:18;;;;;;;0.60;0.60;;;3.90;99.90;;;;;;5014921;28;20525;-68
2020/12/28 09:54:44;;;;;;;0.70;0.70;;;3.90;99.90;;;;;;5015967;28;20896;-69
2020/12/28 09:57:12;;;;;;;1.37;0.60;;;3.90;99.90;;;;;;5016319;28;20476;-68
2020/12/28 09:59:39;;;;;;;0.80;0.80;;;3.80;99.90;;;;;;5015869;28;20446;-68
2020/12/28 10:02:07;;;;;;;1.10;1.00;;;3.70;99.90;;;;;;5016124;28;20471;-71
2020/12/28 10:04:33;;;;;;;0.83;0.83;;;3.80;99.90;;;;;;5015883;28;20432;-74
2020/12/28 10:07:00;;;;;;;1.57;0.90;;;3.90;99.90;;;;;;5016162;28;20468;-71
2020/12/28 10:09:26;;;;;;;2.00;1.00;;;4.00;99.90;;;;;;5016162;28;20435;-72
2020/12/28 10:11:52;;;;;;;3.17;0.93;;;4.00;99.90;;;;;;5015987;28;20471;-72
2020/12/28 10:14:19;;;;;;;5.07;3.30;;;4.10;99.90;;;;;;5016157;28;20439;-73
2020/12/28 10:16:46;;;;;;;2.30;1.17;;;4.00;99.90;;;;;;5015823;28;20444;-73
2020/12/28 10:19:12;;;;;;;30.77;11.10;;;4.10;99.90;;;;;;5016028;28;20482;-72
2020/12/28 10:21:38;;;;;;;3.40;1.00;;;4.00;99.90;;;;;;5015438;28;20479;-72
2020/12/28 10:24:04;;;;;;;16.53;5.80;;;4.10;99.90;;;;;;5015575;28;20474;-71
2020/12/28 10:26:30;;;;;;;5.73;3.10;;;4.10;99.90;;;;;;5015450;28;20863;-72
2020/12/28 10:28:58;;;;;;;1.03;0.97;;;4.10;99.90;;;;;;5015487;28;20439;-71
2020/12/28 10:31:26;;;;;;;3.93;2.87;;;4.20;99.90;;;;;;5015766;28;20836;-71
2020/12/28 10:33:52;;;;;;;2.30;1.57;;;4.10;99.90;;;;;;5015546;28;20443;-68
2020/12/28 10:36:20;;;;;;;3.50;2.40;;;4.20;99.90;;;;;;5015774;28;20433;-69
2020/12/28 10:38:47;;;;;;;3.63;1.83;;;4.10;99.90;;;;;;5015579;28;20440;-68
2020/12/28 10:41:13;;;;;;;1.23;1.13;;;4.20;99.90;;;;;;5015812;28;20436;-68
2020/12/28 10:43:39;;;;;;;1.20;1.10;;;4.20;99.90;;;;;;5015637;28;20442;-69
2020/12/28 10:46:07;;;;;;;1.53;1.43;;;4.30;99.90;;;;;;5015621;28;20444;-71
2020/12/28 10:48:34;;;;;;;1.30;1.20;;;4.20;99.90;;;;;;5015719;28;20427;-71
2020/12/28 10:51:00;;;;;;;1.60;1.30;;;4.40;99.90;;;;;;5015621;28;20436;-70
2020/12/28 10:53:26;;;;;;;1.40;1.07;;;4.40;99.90;;;;;;5015536;28;20464;-69
2020/12/28 10:55:52;;;;;;;0.90;0.90;;;4.30;99.90;;;;;;5015551;28;20431;-68
2020/12/28 10:58:18;;;;;;;1.90;1.10;;;4.30;99.90;;;;;;5015441;28;20432;-68
2020/12/28 11:00:45;;;;;;;0.90;0.80;;;4.40;99.90;;;;;;5015054;28;20462;-69
2020/12/28 11:03:11;;;;;;;1.03;0.97;;;4.40;99.90;;;;;;5015212;28;20538;-69
2020/12/28 11:05:38;;;;;;;0.70;0.70;;;4.40;99.90;;;;;;5015395;28;20432;-69
2020/12/28 11:08:04;;;;;;;1.63;1.20;;;4.30;99.90;;;;;;5015259;28;20442;-69
2020/12/28 11:10:30;;;;;;;1.10;0.90;;;4.30;99.90;;;;;;5015253;28;20440;-69
2020/12/28 11:12:56;;;;;;;1.03;0.93;;;4.20;99.90;;;;;;5015126;28;20438;-69
2020/12/28 11:15:22;;;;;;;0.80;0.80;;;4.10;99.90;;;;;;5015170;28;20432;-69
2020/12/28 11:17:49;;;;;;;1.50;1.10;;;4.10;99.90;;;;;;5014777;28;20423;-68
2020/12/28 11:20:16;;;;;;;0.97;0.90;;;4.10;99.90;;;;;;5014860;28;20509;-68
2020/12/28 11:22:44;;;;;;;0.77;0.77;;;4.10;99.90;;;;;;5014667;28;20999;-69
2020/12/28 11:25:10;;;;;;;1.03;0.93;;;4.10;99.90;;;;;;5015293;28;20442;-71
2020/12/28 11:27:36;;;;;;;1.23;0.93;;;4.10;99.90;;;;;;5014588;28;20502;-71
2020/12/28 11:30:04;;;;;;;1.20;1.10;;;4.10;99.90;;;;;;5014883;28;20829;-69
2020/12/28 11:32:30;;;;;;;1.00;0.90;;;4.20;99.90;;;;;;5014462;28;21013;-69
2020/12/28 11:34:56;;;;;;;1.00;1.00;;;4.20;99.90;;;;;;5014715;28;20450;-69
2020/12/28 11:37:22;;;;;;;2.00;0.90;;;4.20;99.90;;;;;;5014744;28;20448;-69
2020/12/28 11:39:49;;;;;;;1.50;1.10;;;4.20;99.90;;;;;;5014387;28;20450;-69
2020/12/28 11:42:18;;;;;;;0.90;0.70;;;4.30;99.90;;;;;;5014490;28;20483;-69
2020/12/28 11:44:44;;;;;;;0.80;0.80;;;4.30;99.90;;;;;;5014346;28;20542;-69
2020/12/28 11:47:10;;;;;;;1.03;1.03;;;4.40;99.90;;;;;;5014498;28;20534;-69
2020/12/28 11:49:36;;;;;;;0.77;0.77;;;4.40;99.90;;;;;;5014562;28;20456;-72
2020/12/28 11:52:03;;;;;;;1.00;0.87;;;4.50;99.90;;;;;;5014416;28;20475;-71
2020/12/28 11:54:29;;;;;;;1.07;1.00;;;4.50;99.90;;;;;;5014132;28;20961;-74
2020/12/28 11:56:56;;;;;;;1.20;1.10;;;4.60;99.90;;;;;;5014091;28;20816;-73
2020/12/28 11:59:22;;;;;;;1.30;1.20;;;4.60;99.90;;;;;;5014369;28;20865;-71
2020/12/28 12:01:49;;;;;;;1.30;1.20;;;4.70;99.90;;;;;;5013937;28;20915;-72
2020/12/28 12:04:16;;;;;;;1.07;1.07;;;4.70;99.90;;;;;;5014832;28;20443;-70
2020/12/28 12:06:43;;;;;;;1.57;1.10;;;4.80;99.90;;;;;;5014162;28;20486;-70
2020/12/28 12:09:10;;;;;;;1.60;1.10;;;4.70;99.90;;;;;;5013880;28;20970;-72
2020/12/28 12:11:37;;;;;;;1.13;1.13;;;4.70;99.90;;;;;;5014094;28;20444;-72
2020/12/28 12:14:04;;;;;;;1.40;0.80;;;4.80;99.90;;;;;;5013675;28;20445;-72
2020/12/28 12:16:31;;;;;;;1.30;1.20;;;4.70;99.90;;;;;;5013802;28;20943;-72
2020/12/28 12:18:57;;;;;;;1.00;0.90;;;4.70;99.90;;;;;;5013648;28;20443;-70
2020/12/28 12:21:23;;;;;;;1.17;1.07;;;4.60;99.90;;;;;;5013650;28;20479;-69
2020/12/28 12:23:49;;;;;;;1.23;1.00;;;4.60;99.90;;;;;;5014172;28;20471;-69
2020/12/28 12:26:19;;;;;;;0.80;0.80;;;4.60;99.90;;;;;;5013855;28;20443;-69
2020/12/28 12:28:45;;;;;;;1.33;0.70;;;4.60;99.90;;;;;;5013925;28;20443;-69
2020/12/28 12:31:14;;;;;;;2.20;1.00;;;4.60;99.90;;;;;;5013878;28;20470;-70
2020/12/28 12:33:40;;;;;;;1.10;1.00;;;4.50;99.90;;;;;;5013755;28;20499;-67
2020/12/28 12:36:07;;;;;;;0.90;0.90;;;4.40;99.90;;;;;;5013800;28;20432;-68
2020/12/28 12:38:33;;;;;;;1.07;0.80;;;4.30;99.90;;;;;;5013787;28;20440;-70
2020/12/28 12:41:00;;;;;;;1.10;1.00;;;4.40;99.90;;;;;;5013436;28;20435;-68
2020/12/28 12:43:26;;;;;;;0.90;0.70;;;4.30;99.90;;;;;;5013624;28;20556;-68
2020/12/28 12:45:52;;;;;;;1.10;1.00;;;4.30;99.90;;;;;;5013440;28;20907;-69
2020/12/28 12:48:19;;;;;;;1.70;1.10;;;4.20;99.90;;;;;;5013614;28;20463;-70
2020/12/28 12:50:45;;;;;;;1.43;1.33;;;4.30;99.90;;;;;;5013678;28;20428;-70
2020/12/28 12:53:11;;;;;;;1.47;1.37;;;4.30;99.90;;;;;;5013253;28;20467;-70
2020/12/28 12:55:40;;;;;;;1.93;1.83;;;4.30;99.90;;;;;;5013544;28;20431;-70
2020/12/28 12:58:06;;;;;;;1.30;1.20;;;4.30;99.90;;;;;;5013537;28;20442;-70